메인 페이지
METAR-TAF:

METAR-TAF

공항 :

난디 국제공항

나디, 피지

위도: 17-45S, 경도: 177-27E, 고도: 13m

현재 날씨관측

예보는 56분 전, 20:00시(UTC)에 발표되었습니다.
3kt
온도 24°C
습도 74%
기압 1013 hPa
시정 10km 이상
고도 3000ft 상공 구름 조금

METAR: NFFN 202000Z 08003KT 9999 FEW030 24/19 Q1013 NOSIG

시각: 08:56 (20:56 UTC)

예보

예보는 3 시간 54분 전, 17:02시(UTC)에 발표되었습니다.
예보 대상 시간: 20일 18시부터 21일 18시까지 (UTC)
북동5kt
시정 10km 이상
고도 3000ft 상공 구름 조금
전환 중
20일 21시부터 20일 23시까지 (UTC)
서북서12kt
전환 중
21일 06시부터 21일 08시까지 (UTC)
여러 방향의 바람 3kt

TAF: NFFN 201702Z 2018/2118 05005KT 9999 FEW030 BECMG 2021/2023 30012KT BECMG 2106/2108 VRB03KT

4,000개 이상의 공항 관측 자료 및 예보 (METAR 및 TAF 보고).

지도상에서 검색 가능한 기상관측소가 노란 점과 빨간 점으로 표시되어 있습니다.

기상관측소 명을 보려면 표시 위로 마우스를 이동하세요.

날씨 관측과 예보를 보려면 클릭하세요.

지도 변경 : 확대하려면 엑스 표시가 있는 녹색 버튼, 축소하려면 빼기 표시가 있는 녹색 버튼, 다음 페이지의 지도를 보려면 녹색 화살표를 클릭하세요.


METAR-TAF: